Terminal Aerodrome Forecast
Issued by NWS Omaha/Valley, NE

Home | Current Version | Previous Version | Text Only | Print | Product List | Glossary On
Versions: 1 2 3 4 5 6 7 8 9 10 11 12 13 14 15 16 17 18
000
FTUS43 KOAX 262305 AAB
TAFLNK
TAF AMD
KLNK 262305Z 2623/2718 36016G25KT P6SM FEW250
     FM270200 35010KT P6SM SKC
     FM270500 32005KT P6SM SCT250
     FM271400 27010KT P6SM SKC
     FM271700 30014G22KT P6SM SCT050=

USA.gov is the U.S. government's official web portal to all federal, state and local government web resources and services.